Time,TemperatureF,DewpointF,PressureIn,WindDirection,WindDirectionDegrees,WindSpeedMPH,WindSpeedGustMPH,Humidity,HourlyPrecipIn,Conditions,Clouds,dailyrainin,SoftwareType,DateUTC
2013-11-14 00:05:00,20.2,16.1,30.08,SSE,157,0.0,0.0,84,0.00,,,0.00,Wunderground v.1.15,2013-11-14 05:05:00,
2013-11-14 00:10:00,20.3,16.2,30.07,SSE,157,0.0,0.0,84,0.00,,,0.00,Wunderground v.1.15,2013-11-14 05:10:00,
2013-11-14 00:16:00,20.4,16.3,30.07,SSE,157,0.0,0.0,84,0.00,,,0.00,Wunderground v.1.15,2013-11-14 05:16:00,
2013-11-14 00:30:00,21.2,16.8,30.07,SSE,157,0.0,0.0,83,0.00,,,0.00,Wunderground v.1.15,2013-11-14 05:30:00,
2013-11-14 00:36:00,21.4,17.0,30.06,SSE,157,0.0,0.0,83,0.00,,,0.00,Wunderground v.1.15,2013-11-14 05:36:00,
2013-11-14 00:40:00,21.5,17.1,30.07,SSE,157,0.0,0.0,83,0.00,,,0.00,Wunderground v.1.15,2013-11-14 05:40:00,
2013-11-14 00:45:00,21.8,17.4,30.06,SSE,157,0.0,0.0,83,0.00,,,0.00,Wunderground v.1.15,2013-11-14 05:45:00,
2013-11-14 00:50:00,22.1,17.4,30.07,SSE,157,0.0,0.0,82,0.00,,,0.00,Wunderground v.1.15,2013-11-14 05:50:00,
2013-11-14 00:55:00,22.4,17.5,30.07,SSE,157,0.0,0.0,81,0.00,,,0.00,Wunderground v.1.15,2013-11-14 05:55:00,
2013-11-14 01:01:00,22.8,17.6,30.06,SSE,157,1.0,1.0,80,0.00,,,0.00,Wunderground v.1.15,2013-11-14 06:01:00,
2013-11-14 01:06:00,23.2,17.4,30.06,SSW,202,2.0,3.0,78,0.00,,,0.00,Wunderground v.1.15,2013-11-14 06:06:00,
2013-11-14 01:11:00,23.4,17.3,30.06,South,181,2.0,3.0,77,0.00,,,0.00,Wunderground v.1.15,2013-11-14 06:11:00,
2013-11-14 01:21:00,23.5,17.0,30.06,South,181,1.0,3.0,76,0.00,,,0.00,Wunderground v.1.15,2013-11-14 06:21:00,
2013-11-14 01:25:00,23.5,17.0,30.06,South,181,1.0,3.0,76,0.00,,,0.00,Wunderground v.1.15,2013-11-14 06:25:00,
2013-11-14 01:30:00,23.6,17.1,30.06,South,181,1.0,1.0,76,0.00,,,0.00,Wunderground v.1.15,2013-11-14 06:30:00,
2013-11-14 01:41:00,23.6,17.7,30.05,South,181,0.0,1.0,78,0.00,,,0.00,Wunderground v.1.15,2013-11-14 06:41:00,
2013-11-14 01:46:00,23.6,17.7,30.05,South,181,0.0,1.0,78,0.00,,,0.00,Wunderground v.1.15,2013-11-14 06:46:00,
2013-11-14 01:51:00,23.7,17.5,30.06,South,181,0.0,1.0,77,0.00,,,0.00,Wunderground v.1.15,2013-11-14 06:51:00,
2013-11-14 01:55:00,23.9,17.7,30.06,South,181,1.0,1.0,77,0.00,,,0.00,Wunderground v.1.15,2013-11-14 06:55:00,
2013-11-14 02:00:00,24.0,17.5,30.05,South,181,1.0,1.0,76,0.00,,,0.00,Wunderground v.1.15,2013-11-14 07:00:00,
2013-11-14 02:05:00,24.1,17.9,30.05,South,181,1.0,1.0,77,0.00,,,0.00,Wunderground v.1.15,2013-11-14 07:05:00,
2013-11-14 02:10:00,24.0,17.8,30.05,South,181,0.0,0.0,77,0.00,,,0.00,Wunderground v.1.15,2013-11-14 07:10:00,
2013-11-14 02:16:00,23.8,17.6,30.05,South,181,0.0,0.0,77,0.00,,,0.00,Wunderground v.1.15,2013-11-14 07:16:00,
2013-11-14 02:20:00,23.7,17.5,30.05,South,181,0.0,0.0,77,0.00,,,0.00,Wunderground v.1.15,2013-11-14 07:20:00,
2013-11-14 03:10:00,23.8,19.4,30.05,South,181,0.0,0.0,83,0.00,,,0.00,Wunderground v.1.15,2013-11-14 08:10:00,
2013-11-14 03:15:00,24.0,19.6,30.05,South,181,0.0,0.0,83,0.00,,,0.00,Wunderground v.1.15,2013-11-14 08:15:00,
2013-11-14 03:20:00,24.1,19.4,30.05,South,181,0.0,0.0,82,0.00,,,0.00,Wunderground v.1.15,2013-11-14 08:20:00,
2013-11-14 03:26:00,24.3,19.3,30.04,South,181,0.0,0.0,81,0.00,,,0.00,Wunderground v.1.15,2013-11-14 08:26:00,
2013-11-14 03:50:00,25.4,19.8,30.04,South,181,0.0,0.0,79,0.00,,,0.00,Wunderground v.1.15,2013-11-14 08:50:00,
2013-11-14 03:55:00,25.5,19.9,30.04,South,181,1.0,1.0,79,0.00,,,0.00,Wunderground v.1.15,2013-11-14 08:55:00,
2013-11-14 04:00:00,25.6,20.0,30.04,South,181,0.0,0.0,79,0.00,,,0.00,Wunderground v.1.15,2013-11-14 09:00:00,
2013-11-14 04:10:00,25.7,20.1,30.04,South,181,0.0,0.0,79,0.00,,,0.00,Wunderground v.1.15,2013-11-14 09:10:00,
2013-11-14 04:25:00,25.5,19.9,30.03,South,181,1.0,1.0,79,0.00,,,0.00,Wunderground v.1.15,2013-11-14 09:25:00,
2013-11-14 04:30:00,25.5,19.9,30.03,South,181,1.0,2.0,79,0.00,,,0.00,Wunderground v.1.15,2013-11-14 09:30:00,
2013-11-14 04:35:00,25.4,19.8,30.03,South,181,0.0,0.0,79,0.00,,,0.00,Wunderground v.1.15,2013-11-14 09:35:00,
2013-11-14 04:40:00,25.3,19.7,30.03,South,181,0.0,0.0,79,0.00,,,0.00,Wunderground v.1.15,2013-11-14 09:40:00,
2013-11-14 04:45:00,25.0,19.7,30.04,South,181,0.0,0.0,80,0.00,,,0.00,Wunderground v.1.15,2013-11-14 09:45:00,
2013-11-14 04:51:00,24.8,19.8,30.04,South,181,0.0,0.0,81,0.00,,,0.00,Wunderground v.1.15,2013-11-14 09:51:00,
2013-11-14 04:55:00,24.6,19.9,30.04,South,181,0.0,0.0,82,0.00,,,0.00,Wunderground v.1.15,2013-11-14 09:55:00,
2013-11-14 05:05:00,24.4,19.7,30.03,South,181,0.0,0.0,82,0.00,,,0.00,Wunderground v.1.15,2013-11-14 10:05:00,
2013-11-14 05:15:00,23.8,19.1,30.03,South,181,0.0,0.0,82,0.00,,,0.00,Wunderground v.1.15,2013-11-14 10:15:00,
2013-11-14 05:20:00,23.7,19.0,30.03,South,181,0.0,0.0,82,0.00,,,0.00,Wunderground v.1.15,2013-11-14 10:20:00,
2013-11-14 05:26:00,23.7,19.3,30.03,South,181,0.0,0.0,83,0.00,,,0.00,Wunderground v.1.15,2013-11-14 10:26:00,
2013-11-14 05:31:00,23.6,19.2,30.04,South,181,0.0,0.0,83,0.00,,,0.00,Wunderground v.1.15,2013-11-14 10:31:00,
2013-11-14 05:35:00,23.4,19.3,30.03,South,181,0.0,0.0,84,0.00,,,0.00,Wunderground v.1.15,2013-11-14 10:35:00,
2013-11-14 05:41:00,23.4,19.3,30.03,South,181,0.0,0.0,84,0.00,,,0.00,Wunderground v.1.15,2013-11-14 10:41:00,
2013-11-14 05:46:00,23.2,19.4,30.03,South,181,0.0,0.0,85,0.00,,,0.00,Wunderground v.1.15,2013-11-14 10:46:00,
2013-11-14 05:50:00,23.2,19.4,30.03,South,181,0.0,0.0,85,0.00,,,0.00,Wunderground v.1.15,2013-11-14 10:50:00,
2013-11-14 05:56:00,23.3,19.5,30.04,South,181,1.0,1.0,85,0.00,,,0.00,Wunderground v.1.15,2013-11-14 10:56:00,
2013-11-14 06:05:00,23.6,19.8,30.03,South,181,1.0,1.0,85,0.00,,,0.00,Wunderground v.1.15,2013-11-14 11:05:00,
2013-11-14 06:10:00,23.9,20.3,30.03,South,181,0.0,0.0,86,0.00,,,0.00,Wunderground v.1.15,2013-11-14 11:10:00,
2013-11-14 06:15:00,24.1,20.5,30.04,South,181,0.0,0.0,86,0.00,,,0.00,Wunderground v.1.15,2013-11-14 11:15:00,
2013-11-14 06:20:00,24.2,20.6,30.04,South,181,0.0,0.0,86,0.00,,,0.00,Wunderground v.1.15,2013-11-14 11:20:00,
2013-11-14 06:25:00,24.3,20.7,30.04,South,181,0.0,0.0,86,0.00,,,0.00,Wunderground v.1.15,2013-11-14 11:25:00,
2013-11-14 06:30:00,24.6,21.0,30.04,South,181,0.0,0.0,86,0.00,,,0.00,Wunderground v.1.15,2013-11-14 11:30:00,
2013-11-14 06:35:00,24.8,21.2,30.04,South,181,0.0,0.0,86,0.00,,,0.00,Wunderground v.1.15,2013-11-14 11:35:00,
2013-11-14 06:40:00,24.9,21.3,30.04,South,181,0.0,0.0,86,0.00,,,0.00,Wunderground v.1.15,2013-11-14 11:40:00,
2013-11-14 06:45:00,24.8,21.2,30.04,South,181,0.0,0.0,86,0.00,,,0.00,Wunderground v.1.15,2013-11-14 11:45:00,
2013-11-14 06:55:00,24.9,21.3,30.04,South,181,0.0,0.0,86,0.00,,,0.00,Wunderground v.1.15,2013-11-14 11:55:00,
2013-11-14 07:00:00,25.1,21.5,30.04,South,181,0.0,0.0,86,0.00,,,0.00,Wunderground v.1.15,2013-11-14 12:00:00,
2013-11-14 07:06:00,25.3,21.7,30.05,South,181,0.0,0.0,86,0.00,,,0.00,Wunderground v.1.15,2013-11-14 12:06:00,
2013-11-14 07:10:00,25.5,21.9,30.05,South,181,0.0,0.0,86,0.00,,,0.00,Wunderground v.1.15,2013-11-14 12:10:00,
2013-11-14 07:15:00,25.7,22.1,30.05,SW,232,0.0,0.0,86,0.00,,,0.00,Wunderground v.1.15,2013-11-14 12:15:00,
2013-11-14 07:20:00,25.9,22.3,30.05,SW,232,0.0,0.0,86,0.00,,,0.00,Wunderground v.1.15,2013-11-14 12:20:00,
2013-11-14 07:26:00,26.1,22.2,30.05,SW,232,0.0,0.0,85,0.00,,,0.00,Wunderground v.1.15,2013-11-14 12:26:00,
2013-11-14 07:30:00,26.3,22.4,30.05,SW,232,0.0,0.0,85,0.00,,,0.00,Wunderground v.1.15,2013-11-14 12:30:00,
2013-11-14 07:40:00,26.8,22.9,30.05,SW,232,0.0,0.0,85,0.00,,,0.00,Wunderground v.1.15,2013-11-14 12:40:00,
2013-11-14 07:50:00,27.0,23.1,30.06,SW,232,0.0,0.0,85,0.00,,,0.00,Wunderground v.1.15,2013-11-14 12:50:00,
2013-11-14 07:55:00,27.2,23.0,30.06,SW,232,0.0,0.0,84,0.00,,,0.00,Wunderground v.1.15,2013-11-14 12:55:00,
2013-11-14 08:01:00,27.3,22.8,30.06,SW,232,0.0,0.0,83,0.00,,,0.00,Wunderground v.1.15,2013-11-14 13:01:00,
2013-11-14 08:10:00,27.9,23.4,30.06,SW,232,0.0,0.0,83,0.00,,,0.00,Wunderground v.1.15,2013-11-14 13:10:00,
2013-11-14 08:16:00,28.0,23.8,30.06,SW,232,0.0,1.0,84,0.00,,,0.00,Wunderground v.1.15,2013-11-14 13:16:00,
2013-11-14 08:20:00,28.0,23.8,30.06,SW,232,0.0,0.0,84,0.00,,,0.00,Wunderground v.1.15,2013-11-14 13:20:00,
2013-11-14 08:25:00,28.1,23.9,30.06,SW,232,0.0,0.0,84,0.00,,,0.00,Wunderground v.1.15,2013-11-14 13:25:00,
2013-11-14 08:31:00,28.3,23.8,30.05,SW,232,0.0,0.0,83,0.00,,,0.00,Wunderground v.1.15,2013-11-14 13:31:00,
2013-11-14 08:36:00,28.4,23.6,30.05,SW,232,0.0,0.0,82,0.00,,,0.00,Wunderground v.1.15,2013-11-14 13:36:00,
2013-11-14 08:46:00,28.8,23.4,30.05,SW,232,0.0,0.0,80,0.00,,,0.00,Wunderground v.1.15,2013-11-14 13:46:00,
2013-11-14 08:50:00,28.9,23.8,30.05,SW,232,0.0,0.0,81,0.00,,,0.00,Wunderground v.1.15,2013-11-14 13:50:00,
2013-11-14 08:55:00,29.2,23.8,30.06,SW,232,0.0,0.0,80,0.00,,,0.00,Wunderground v.1.15,2013-11-14 13:55:00,
2013-11-14 09:01:00,29.4,23.7,30.06,SW,232,0.0,0.0,79,0.00,,,0.00,Wunderground v.1.15,2013-11-14 14:01:00,
2013-11-14 09:05:00,29.7,23.7,30.05,SW,232,0.0,0.0,78,0.00,,,0.00,Wunderground v.1.15,2013-11-14 14:05:00,
2013-11-14 09:10:00,30.0,24.0,30.05,SW,232,0.0,0.0,78,0.00,,,0.00,Wunderground v.1.15,2013-11-14 14:10:00,
2013-11-14 09:15:00,30.1,23.4,30.06,SW,232,0.0,0.0,76,0.00,,,0.00,Wunderground v.1.15,2013-11-14 14:15:00,
2013-11-14 09:20:00,30.2,23.2,30.05,SW,232,0.0,0.0,75,0.00,,,0.00,Wunderground v.1.15,2013-11-14 14:20:00,
2013-11-14 09:25:00,30.3,23.3,30.05,SW,232,0.0,0.0,75,0.00,,,0.00,Wunderground v.1.15,2013-11-14 14:25:00,
2013-11-14 09:30:00,30.2,22.9,30.05,SW,232,0.0,0.0,74,0.00,,,0.00,Wunderground v.1.15,2013-11-14 14:30:00,
2013-11-14 09:35:00,30.4,23.1,30.06,SW,232,0.0,0.0,74,0.00,,,0.00,Wunderground v.1.15,2013-11-14 14:35:00,
2013-11-14 09:45:00,30.9,23.6,30.06,SW,232,0.0,0.0,74,0.00,,,0.00,Wunderground v.1.15,2013-11-14 14:45:00,
2013-11-14 09:50:00,30.9,23.6,30.06,SW,232,0.0,0.0,74,0.00,,,0.00,Wunderground v.1.15,2013-11-14 14:50:00,
2013-11-14 09:55:00,30.8,23.5,30.06,SW,232,0.0,0.0,74,0.00,,,0.00,Wunderground v.1.15,2013-11-14 14:55:00,
2013-11-14 10:05:00,31.1,23.8,30.06,SW,232,0.0,0.0,74,0.00,,,0.00,Wunderground v.1.15,2013-11-14 15:05:00,
2013-11-14 10:10:00,31.1,23.8,30.07,SW,232,0.0,0.0,74,0.00,,,0.00,Wunderground v.1.15,2013-11-14 15:10:00,
2013-11-14 10:15:00,31.1,23.8,30.07,SW,232,0.0,0.0,74,0.00,,,0.00,Wunderground v.1.15,2013-11-14 15:15:00,
2013-11-14 10:20:00,31.4,24.1,30.06,SW,232,0.0,0.0,74,0.00,,,0.00,Wunderground v.1.15,2013-11-14 15:20:00,
2013-11-14 10:25:00,31.7,24.0,30.06,SW,232,0.0,0.0,73,0.00,,,0.00,Wunderground v.1.15,2013-11-14 15:25:00,
2013-11-14 10:30:00,31.7,24.0,30.06,SW,232,0.0,0.0,73,0.00,,,0.00,Wunderground v.1.15,2013-11-14 15:30:00,
2013-11-14 10:35:00,31.7,24.0,30.06,SW,232,0.0,2.0,73,0.00,,,0.00,Wunderground v.1.15,2013-11-14 15:35:00,
2013-11-14 10:45:00,31.9,24.2,30.06,SW,232,0.0,0.0,73,0.00,,,0.00,Wunderground v.1.15,2013-11-14 15:45:00,
2013-11-14 10:55:00,32.5,24.5,30.05,SW,232,0.0,0.0,72,0.00,,,0.00,Wunderground v.1.15,2013-11-14 15:55:00,
2013-11-14 11:00:00,32.5,24.1,30.05,SW,232,0.0,0.0,71,0.00,,,0.00,Wunderground v.1.15,2013-11-14 16:00:00,
2013-11-14 11:05:00,32.5,24.5,30.05,SW,232,0.0,0.0,72,0.00,,,0.00,Wunderground v.1.15,2013-11-14 16:05:00,
2013-11-14 11:11:00,32.7,24.7,30.05,SW,232,0.0,0.0,72,0.00,,,0.00,Wunderground v.1.15,2013-11-14 16:11:00,
2013-11-14 11:15:00,33.1,25.1,30.05,SW,232,0.0,0.0,72,0.00,,,0.00,Wunderground v.1.15,2013-11-14 16:15:00,
2013-11-14 11:20:00,33.4,25.0,30.05,SW,232,0.0,0.0,71,0.00,,,0.00,Wunderground v.1.15,2013-11-14 16:20:00,
2013-11-14 11:31:00,33.3,25.6,30.05,SW,232,0.0,2.0,73,0.00,,,0.00,Wunderground v.1.15,2013-11-14 16:31:00,
2013-11-14 11:40:00,33.5,25.4,30.05,SW,232,0.0,0.0,72,0.00,,,0.00,Wunderground v.1.15,2013-11-14 16:40:00,
2013-11-14 11:45:00,33.5,25.1,30.04,SW,232,0.0,0.0,71,0.00,,,0.00,Wunderground v.1.15,2013-11-14 16:45:00,
2013-11-14 11:50:00,33.5,25.4,30.04,SW,232,0.0,0.0,72,0.00,,,0.00,Wunderground v.1.15,2013-11-14 16:50:00,
2013-11-14 11:55:00,33.6,25.5,30.04,SW,232,0.0,0.0,72,0.00,,,0.00,Wunderground v.1.15,2013-11-14 16:55:00,
2013-11-14 12:06:00,33.7,26.0,30.04,SW,232,0.0,0.0,73,0.00,,,0.00,Wunderground v.1.15,2013-11-14 17:06:00,
2013-11-14 12:10:00,33.9,25.8,30.04,SW,232,0.0,0.0,72,0.00,,,0.00,Wunderground v.1.15,2013-11-14 17:10:00,
2013-11-14 12:16:00,34.3,26.2,30.04,SW,232,0.0,0.0,72,0.00,,,0.00,Wunderground v.1.15,2013-11-14 17:16:00,
2013-11-14 12:20:00,34.8,27.0,30.04,SW,232,0.0,0.0,73,0.00,,,0.00,Wunderground v.1.15,2013-11-14 17:20:00,
2013-11-14 12:26:00,35.4,27.3,30.04,SW,232,0.0,0.0,72,0.00,,,0.00,Wunderground v.1.15,2013-11-14 17:26:00,
2013-11-14 12:30:00,36.0,27.5,30.04,SW,232,0.0,0.0,71,0.00,,,0.00,Wunderground v.1.15,2013-11-14 17:30:00,
2013-11-14 12:36:00,36.5,27.6,30.04,SW,232,0.0,1.0,70,0.00,,,0.00,Wunderground v.1.15,2013-11-14 17:36:00,
2013-11-14 12:40:00,37.0,28.5,30.04,SW,232,0.0,0.0,71,0.00,,,0.00,Wunderground v.1.15,2013-11-14 17:40:00,
2013-11-14 12:45:00,37.5,28.6,30.04,SW,232,0.0,0.0,70,0.00,,,0.00,Wunderground v.1.15,2013-11-14 17:45:00,
2013-11-14 12:50:00,38.4,29.8,30.04,SW,232,2.0,2.0,71,0.00,,,0.00,Wunderground v.1.15,2013-11-14 17:50:00,
2013-11-14 12:56:00,39.1,29.8,30.04,WSW,237,4.0,4.0,69,0.00,,,0.00,Wunderground v.1.15,2013-11-14 17:56:00,
2013-11-14 13:01:00,39.4,29.7,30.04,West,261,6.0,6.0,68,0.00,,,0.00,Wunderground v.1.15,2013-11-14 18:01:00,
2013-11-14 13:05:00,39.5,29.8,30.03,SSW,213,7.0,7.0,68,0.00,,,0.00,Wunderground v.1.15,2013-11-14 18:05:00,
2013-11-14 13:10:00,39.4,29.7,30.03,South,179,7.0,10.0,68,0.00,,,0.00,Wunderground v.1.15,2013-11-14 18:10:00,
2013-11-14 13:16:00,39.1,29.4,30.03,SW,219,6.0,10.0,68,0.00,,,0.00,Wunderground v.1.15,2013-11-14 18:16:00,
2013-11-14 13:21:00,38.8,29.5,30.03,SSW,209,5.0,10.0,69,0.00,,,0.00,Wunderground v.1.15,2013-11-14 18:21:00,
2013-11-14 13:26:00,38.6,28.9,30.03,SE,146,6.0,10.0,68,0.00,,,0.00,Wunderground v.1.15,2013-11-14 18:26:00,
2013-11-14 13:36:00,38.7,29.4,30.04,SSW,212,5.0,7.0,69,0.00,,,0.00,Wunderground v.1.15,2013-11-14 18:36:00,
2013-11-14 13:40:00,38.9,29.6,30.04,SW,225,5.0,5.0,69,0.00,,,0.00,Wunderground v.1.15,2013-11-14 18:40:00,
2013-11-14 13:45:00,38.9,29.6,30.03,SSW,195,5.0,5.0,69,0.00,,,0.00,Wunderground v.1.15,2013-11-14 18:45:00,
2013-11-14 13:50:00,39.1,29.8,30.03,SSW,200,5.0,5.0,69,0.00,,,0.00,Wunderground v.1.15,2013-11-14 18:50:00,
2013-11-14 13:55:00,39.1,29.8,30.03,SW,215,5.0,6.0,69,0.00,,,0.00,Wunderground v.1.15,2013-11-14 18:55:00,
2013-11-14 14:00:00,39.4,30.1,30.03,WSW,255,5.0,5.0,69,0.00,,,0.00,Wunderground v.1.15,2013-11-14 19:00:00,
2013-11-14 14:05:00,40.0,30.3,30.03,WSW,258,4.0,5.0,68,0.00,,,0.00,Wunderground v.1.15,2013-11-14 19:05:00,
2013-11-14 14:15:00,40.8,30.3,30.03,SW,222,3.0,7.0,66,0.00,,,0.00,Wunderground v.1.15,2013-11-14 19:15:00,
2013-11-14 14:20:00,40.9,30.4,30.03,WSW,239,3.0,4.0,66,0.00,,,0.00,Wunderground v.1.15,2013-11-14 19:20:00,
2013-11-14 14:26:00,40.8,29.9,30.03,South,173,4.0,4.0,65,0.00,,,0.00,Wunderground v.1.15,2013-11-14 19:26:00,
2013-11-14 14:30:00,40.8,30.3,30.03,SSW,205,5.0,5.0,66,0.00,,,0.00,Wunderground v.1.15,2013-11-14 19:30:00,
2013-11-14 14:35:00,40.8,30.3,30.03,South,173,4.0,5.0,66,0.00,,,0.00,Wunderground v.1.15,2013-11-14 19:35:00,
2013-11-14 14:40:00,40.6,29.7,30.04,SSE,163,4.0,5.0,65,0.00,,,0.00,Wunderground v.1.15,2013-11-14 19:40:00,
2013-11-14 14:50:00,40.4,29.6,30.04,SSE,167,5.0,6.0,65,0.00,,,0.00,Wunderground v.1.15,2013-11-14 19:50:00,
2013-11-14 14:55:00,40.3,29.5,30.04,SSE,157,4.0,6.0,65,0.00,,,0.00,Wunderground v.1.15,2013-11-14 19:55:00,
2013-11-14 15:00:00,40.3,29.8,30.05,SSE,157,4.0,5.0,66,0.00,,,0.00,Wunderground v.1.15,2013-11-14 20:00:00,
2013-11-14 15:05:00,40.0,29.6,30.05,South,169,4.0,5.0,66,0.00,,,0.00,Wunderground v.1.15,2013-11-14 20:05:00,
2013-11-14 15:15:00,39.7,29.6,30.05,SSE,164,4.0,6.0,67,0.00,,,0.00,Wunderground v.1.15,2013-11-14 20:15:00,
2013-11-14 15:20:00,39.6,29.5,30.05,SSE,159,4.0,4.0,67,0.00,,,0.00,Wunderground v.1.15,2013-11-14 20:20:00,
2013-11-14 15:26:00,39.5,29.1,30.05,South,173,4.0,4.0,66,0.00,,,0.00,Wunderground v.1.15,2013-11-14 20:26:00,
2013-11-14 15:30:00,39.4,29.3,30.05,SSE,153,4.0,5.0,67,0.00,,,0.00,Wunderground v.1.15,2013-11-14 20:30:00,
2013-11-14 15:36:00,39.2,29.2,30.05,SSE,164,4.0,5.0,67,0.00,,,0.00,Wunderground v.1.15,2013-11-14 20:36:00,
2013-11-14 15:41:00,38.9,29.2,30.05,SSE,165,5.0,5.0,68,0.00,,,0.00,Wunderground v.1.15,2013-11-14 20:41:00,
2013-11-14 15:45:00,38.8,29.1,30.05,South,182,5.0,5.0,68,0.00,,,0.00,Wunderground v.1.15,2013-11-14 20:45:00,
2013-11-14 15:50:00,38.6,28.9,30.05,SSW,206,4.0,5.0,68,0.00,,,0.00,Wunderground v.1.15,2013-11-14 20:50:00,
2013-11-14 15:55:00,38.4,28.8,30.05,South,170,3.0,6.0,68,0.00,,,0.00,Wunderground v.1.15,2013-11-14 20:55:00,
2013-11-14 16:00:00,38.3,29.0,30.05,SE,140,3.0,3.0,69,0.00,,,0.00,Wunderground v.1.15,2013-11-14 21:00:00,
2013-11-14 16:05:00,38.2,28.9,30.05,SSW,201,3.0,3.0,69,0.00,,,0.00,Wunderground v.1.15,2013-11-14 21:05:00,
2013-11-14 16:10:00,38.1,28.8,30.05,SSE,153,3.0,3.0,69,0.00,,,0.00,Wunderground v.1.15,2013-11-14 21:10:00,
2013-11-14 16:15:00,37.8,28.9,30.05,SSW,199,2.0,3.0,70,0.00,,,0.00,Wunderground v.1.15,2013-11-14 21:15:00,
2013-11-14 16:20:00,37.4,28.9,30.06,SSW,199,2.0,2.0,71,0.00,,,0.00,Wunderground v.1.15,2013-11-14 21:20:00,
2013-11-14 16:25:00,36.5,28.3,30.06,SSW,199,1.0,2.0,72,0.00,,,0.00,Wunderground v.1.15,2013-11-14 21:25:00,
2013-11-14 16:30:00,36.1,28.3,30.06,SSW,199,0.0,0.0,73,0.00,,,0.00,Wunderground v.1.15,2013-11-14 21:30:00,
2013-11-14 16:36:00,35.2,27.7,30.06,SSW,199,0.0,0.0,74,0.00,,,0.00,Wunderground v.1.15,2013-11-14 21:36:00,
2013-11-14 16:40:00,34.5,27.7,30.07,SSW,199,0.0,0.0,76,0.00,,,0.00,Wunderground v.1.15,2013-11-14 21:40:00,
2013-11-14 16:46:00,33.8,27.4,30.06,SSW,199,0.0,0.0,77,0.00,,,0.00,Wunderground v.1.15,2013-11-14 21:46:00,
2013-11-14 16:50:00,33.2,27.1,30.07,SSW,199,0.0,0.0,78,0.00,,,0.00,Wunderground v.1.15,2013-11-14 21:50:00,
2013-11-14 16:56:00,32.6,26.8,30.07,SSW,199,0.0,0.0,79,0.00,,,0.00,Wunderground v.1.15,2013-11-14 21:56:00,
2013-11-14 17:01:00,32.0,26.5,30.06,SSW,199,0.0,0.0,80,0.00,,,0.00,Wunderground v.1.15,2013-11-14 22:01:00,
2013-11-14 17:06:00,31.6,26.4,30.07,SSW,199,0.0,0.0,81,0.00,,,0.00,Wunderground v.1.15,2013-11-14 22:06:00,
2013-11-14 17:10:00,31.3,26.1,30.07,SSW,199,0.0,0.0,81,0.00,,,0.00,Wunderground v.1.15,2013-11-14 22:10:00,
2013-11-14 17:15:00,31.2,26.3,30.07,SSW,199,0.0,0.0,82,0.00,,,0.00,Wunderground v.1.15,2013-11-14 22:15:00,
2013-11-14 17:20:00,30.9,26.1,30.07,SSW,199,0.0,0.0,82,0.00,,,0.00,Wunderground v.1.15,2013-11-14 22:20:00,
2013-11-14 17:25:00,30.8,26.2,30.07,SSW,199,0.0,0.0,83,0.00,,,0.00,Wunderground v.1.15,2013-11-14 22:25:00,
2013-11-14 17:31:00,30.7,26.1,30.07,SSW,199,0.0,0.0,83,0.00,,,0.00,Wunderground v.1.15,2013-11-14 22:31:00,
2013-11-14 17:35:00,30.6,26.1,30.07,SSW,199,0.0,0.0,83,0.00,,,0.00,Wunderground v.1.15,2013-11-14 22:35:00,
2013-11-14 17:40:00,30.5,26.0,30.07,SSW,199,0.0,0.0,83,0.00,,,0.00,Wunderground v.1.15,2013-11-14 22:40:00,
2013-11-14 17:45:00,30.5,26.0,30.07,SSW,199,0.0,0.0,83,0.00,,,0.00,Wunderground v.1.15,2013-11-14 22:45:00,
2013-11-14 17:55:00,30.2,25.9,30.07,SSW,199,0.0,0.0,84,0.00,,,0.00,Wunderground v.1.15,2013-11-14 22:55:00,
2013-11-14 18:00:00,30.2,25.9,30.07,SSW,199,0.0,0.0,84,0.00,,,0.00,Wunderground v.1.15,2013-11-14 23:00:00,
2013-11-14 18:05:00,29.7,25.5,30.07,SSW,199,0.0,0.0,84,0.00,,,0.00,Wunderground v.1.15,2013-11-14 23:05:00,
2013-11-14 18:10:00,29.8,25.8,30.07,SSW,199,0.0,0.0,85,0.00,,,0.00,Wunderground v.1.15,2013-11-14 23:10:00,
2013-11-14 18:16:00,29.7,25.7,30.08,SSW,199,0.0,0.0,85,0.00,,,0.00,Wunderground v.1.15,2013-11-14 23:16:00,
2013-11-14 18:20:00,29.6,25.6,30.08,SSW,199,0.0,0.0,85,0.00,,,0.00,Wunderground v.1.15,2013-11-14 23:20:00,
2013-11-14 18:25:00,29.5,25.5,30.08,SSW,199,0.0,0.0,85,0.00,,,0.00,Wunderground v.1.15,2013-11-14 23:25:00,
2013-11-14 18:31:00,29.2,25.3,30.08,SSW,199,0.0,0.0,85,0.00,,,0.00,Wunderground v.1.15,2013-11-14 23:31:00,
2013-11-14 18:36:00,29.1,25.4,30.08,SSW,199,0.0,0.0,86,0.00,,,0.00,Wunderground v.1.15,2013-11-14 23:36:00,
2013-11-14 18:45:00,28.8,25.1,30.08,SSW,199,0.0,0.0,86,0.00,,,0.00,Wunderground v.1.15,2013-11-14 23:45:00,
2013-11-14 18:55:00,28.8,25.1,30.08,SSW,199,0.0,0.0,86,0.00,,,0.00,Wunderground v.1.15,2013-11-14 23:55:00,
2013-11-14 19:00:00,28.8,25.1,30.08,SSW,199,0.0,0.0,86,0.00,,,0.00,Wunderground v.1.15,2013-11-15 00:00:00,
2013-11-14 19:05:00,28.6,24.9,30.08,SSW,199,0.0,0.0,86,0.00,,,0.00,Wunderground v.1.15,2013-11-15 00:05:00,
2013-11-14 19:10:00,28.7,25.0,30.08,SSW,199,0.0,0.0,86,0.00,,,0.00,Wunderground v.1.15,2013-11-15 00:10:00,
2013-11-14 19:16:00,28.5,25.1,30.07,SSW,199,0.0,0.0,87,0.00,,,0.00,Wunderground v.1.15,2013-11-15 00:16:00,
2013-11-14 19:20:00,28.3,24.9,30.07,SSW,199,0.0,0.0,87,0.00,,,0.00,Wunderground v.1.15,2013-11-15 00:20:00,
2013-11-14 19:25:00,28.2,24.8,30.07,SSW,199,0.0,0.0,87,0.00,,,0.00,Wunderground v.1.15,2013-11-15 00:25:00,
2013-11-14 19:30:00,28.0,24.6,30.07,SSW,199,0.0,0.0,87,0.00,,,0.00,Wunderground v.1.15,2013-11-15 00:30:00,
2013-11-14 19:35:00,28.0,24.9,30.07,SSW,199,0.0,0.0,88,0.00,,,0.00,Wunderground v.1.15,2013-11-15 00:35:00,
2013-11-14 19:40:00,27.9,24.5,30.07,SSW,199,0.0,0.0,87,0.00,,,0.00,Wunderground v.1.15,2013-11-15 00:40:00,
2013-11-14 19:45:00,27.8,24.7,30.08,SSW,199,0.0,0.0,88,0.00,,,0.00,Wunderground v.1.15,2013-11-15 00:45:00,
2013-11-14 19:55:00,27.8,24.7,30.08,SSW,199,0.0,0.0,88,0.00,,,0.00,Wunderground v.1.15,2013-11-15 00:55:00,
2013-11-14 20:00:00,27.8,24.7,30.08,SSW,199,0.0,0.0,88,0.00,,,0.00,Wunderground v.1.15,2013-11-15 01:00:00,
2013-11-14 20:05:00,27.8,24.7,30.07,SSW,199,0.0,0.0,88,0.00,,,0.00,Wunderground v.1.15,2013-11-15 01:05:00,
2013-11-14 20:10:00,27.7,24.9,30.08,SSW,199,0.0,0.0,89,0.00,,,0.00,Wunderground v.1.15,2013-11-15 01:10:00,
2013-11-14 20:16:00,27.5,24.7,30.08,SSW,199,0.0,0.0,89,0.00,,,0.00,Wunderground v.1.15,2013-11-15 01:16:00,
2013-11-14 20:20:00,27.4,24.6,30.08,SSW,199,0.0,0.0,89,0.00,,,0.00,Wunderground v.1.15,2013-11-15 01:20:00,
2013-11-14 20:25:00,27.2,24.4,30.08,SSW,199,0.0,0.0,89,0.00,,,0.00,Wunderground v.1.15,2013-11-15 01:25:00,
2013-11-14 20:30:00,27.0,24.2,30.08,SSW,199,0.0,0.0,89,0.00,,,0.00,Wunderground v.1.15,2013-11-15 01:30:00,
2013-11-14 20:35:00,26.9,24.1,30.08,SSW,199,0.0,0.0,89,0.00,,,0.00,Wunderground v.1.15,2013-11-15 01:35:00,
2013-11-14 20:45:00,26.7,24.2,30.08,SSW,199,0.0,0.0,90,0.00,,,0.00,Wunderground v.1.15,2013-11-15 01:45:00,
2013-11-14 20:55:00,26.5,23.7,30.09,SSW,199,0.0,0.0,89,0.00,,,0.00,Wunderground v.1.15,2013-11-15 01:55:00,
2013-11-14 21:00:00,26.4,23.6,30.09,SSW,199,0.0,0.0,89,0.00,,,0.00,Wunderground v.1.15,2013-11-15 02:00:00,
2013-11-14 21:10:00,26.3,23.8,30.09,SSW,199,0.0,0.0,90,0.00,,,0.00,Wunderground v.1.15,2013-11-15 02:10:00,
2013-11-14 21:15:00,26.2,23.7,30.09,SSW,199,0.0,0.0,90,0.00,,,0.00,Wunderground v.1.15,2013-11-15 02:15:00,
2013-11-14 21:20:00,26.0,23.2,30.09,SSW,199,0.0,0.0,89,0.00,,,0.00,Wunderground v.1.15,2013-11-15 02:20:00,
2013-11-14 21:26:00,25.9,23.4,30.09,SSW,199,0.0,0.0,90,0.00,,,0.00,Wunderground v.1.15,2013-11-15 02:26:00,
2013-11-14 21:30:00,25.8,23.3,30.09,SSW,199,0.0,0.0,90,0.00,,,0.00,Wunderground v.1.15,2013-11-15 02:30:00,
2013-11-14 21:36:00,25.8,23.3,30.09,SSW,199,0.0,0.0,90,0.00,,,0.00,Wunderground v.1.15,2013-11-15 02:36:00,
2013-11-14 21:45:00,25.8,23.5,30.09,SSW,199,0.0,0.0,91,0.00,,,0.00,Wunderground v.1.15,2013-11-15 02:45:00,
2013-11-14 21:50:00,25.5,23.0,30.09,SSW,199,0.0,0.0,90,0.00,,,0.00,Wunderground v.1.15,2013-11-15 02:50:00,
2013-11-14 22:00:00,25.3,22.8,30.09,SSW,199,0.0,0.0,90,0.00,,,0.00,Wunderground v.1.15,2013-11-15 03:00:00,
2013-11-14 22:10:00,25.1,22.6,30.09,SSW,199,0.0,0.0,90,0.00,,,0.00,Wunderground v.1.15,2013-11-15 03:10:00,
2013-11-14 22:15:00,25.0,22.5,30.08,SSW,199,0.0,0.0,90,0.00,,,0.00,Wunderground v.1.15,2013-11-15 03:15:00,
2013-11-14 22:20:00,24.9,22.4,30.08,SSW,199,0.0,0.0,90,0.00,,,0.00,Wunderground v.1.15,2013-11-15 03:20:00,
2013-11-14 22:25:00,24.8,22.5,30.08,SSW,199,0.0,0.0,91,0.00,,,0.00,Wunderground v.1.15,2013-11-15 03:25:00,
2013-11-14 22:30:00,24.8,22.5,30.09,SSW,199,0.0,0.0,91,0.00,,,0.00,Wunderground v.1.15,2013-11-15 03:30:00,
2013-11-14 22:40:00,24.6,22.1,30.09,SSW,199,0.0,0.0,90,0.00,,,0.00,Wunderground v.1.15,2013-11-15 03:40:00,
2013-11-14 22:45:00,24.6,22.3,30.09,SSW,199,0.0,0.0,91,0.00,,,0.00,Wunderground v.1.15,2013-11-15 03:45:00,
2013-11-14 22:50:00,24.4,21.9,30.09,SSW,199,0.0,0.0,90,0.00,,,0.00,Wunderground v.1.15,2013-11-15 03:50:00,
2013-11-14 22:55:00,24.3,22.1,30.09,SSW,199,0.0,0.0,91,0.00,,,0.00,Wunderground v.1.15,2013-11-15 03:55:00,
2013-11-14 23:00:00,24.3,22.1,30.08,SSW,199,0.0,0.0,91,0.00,,,0.00,Wunderground v.1.15,2013-11-15 04:00:00,
2013-11-14 23:05:00,24.3,22.1,30.08,SSW,199,0.0,0.0,91,0.00,,,0.00,Wunderground v.1.15,2013-11-15 04:05:00,
2013-11-14 23:10:00,24.2,22.0,30.09,SSW,199,0.0,0.0,91,0.00,,,0.00,Wunderground v.1.15,2013-11-15 04:10:00,
2013-11-14 23:15:00,24.2,22.0,30.08,SSW,199,0.0,0.0,91,0.00,,,0.00,Wunderground v.1.15,2013-11-15 04:15:00,
2013-11-14 23:20:00,24.0,21.8,30.08,SSW,199,0.0,0.0,91,0.00,,,0.00,Wunderground v.1.15,2013-11-15 04:20:00,
2013-11-14 23:25:00,23.9,21.7,30.08,SSW,199,0.0,0.0,91,0.00,,,0.00,Wunderground v.1.15,2013-11-15 04:25:00,
2013-11-14 23:30:00,23.9,21.7,30.08,SSW,199,0.0,0.0,91,0.00,,,0.00,Wunderground v.1.15,2013-11-15 04:30:00,
2013-11-14 23:35:00,23.7,21.5,30.09,SSW,199,0.0,0.0,91,0.00,,,0.00,Wunderground v.1.15,2013-11-15 04:35:00,
2013-11-14 23:40:00,23.6,21.6,30.09,SSW,199,0.0,0.0,92,0.00,,,0.00,Wunderground v.1.15,2013-11-15 04:40:00,
2013-11-14 23:46:00,23.5,21.5,30.09,SSW,199,0.0,0.0,92,0.00,,,0.00,Wunderground v.1.15,2013-11-15 04:46:00,
2013-11-14 23:50:00,23.3,21.1,30.09,SSW,199,0.0,0.0,91,0.00,,,0.00,Wunderground v.1.15,2013-11-15 04:50:00,
2013-11-14 23:55:00,23.2,21.0,30.09,SSW,199,0.0,0.0,91,0.00,,,0.00,Wunderground v.1.15,2013-11-15 04:55:00,